Time;durP1;ratioP1;P1;durP2;ratioP2;P2;SDS_P1;SDS_P2;PMS_P1;PMS_P2;Temp;Humidity;BMP_temperature;BMP_pressure;BME280_temperature;BME280_humidity;BME280_pressure;Samples;Min_cycle;Max_cycle;Signal;HPM_P1;HPM_P2
2021/12/09 06:23:56;;;;;;;59.08;27.98;;;;;;;-0.68;97.74;100344.88;1991964;29;20396;-63
2021/12/09 06:24:59;;;;;;;58.90;30.90;;;;;;;-0.73;98.12;100348.31;1976600;29;30410;-63
2021/12/09 06:26:01;;;;;;;57.00;31.35;;;;;;;-0.74;97.68;100346.53;1977815;29;44801;-63
2021/12/09 06:27:04;;;;;;;64.30;32.75;;;;;;;-0.71;98.37;100349.19;1985572;29;44314;-63
2021/12/09 06:28:05;;;;;;;64.18;35.55;;;;;;;-0.69;97.75;100350.09;1984625;29;45466;-63
2021/12/09 06:29:08;;;;;;;59.63;35.72;;;;;;;-0.71;98.19;100351.81;1986871;29;20036;-63
2021/12/09 06:30:14;;;;;;;60.95;34.13;;;;;;;-0.72;97.96;100357.94;1978100;29;33796;-63
2021/12/09 06:31:16;;;;;;;65.05;36.22;;;;;;;-0.74;98.55;100357.91;1978949;29;27349;-63
2021/12/09 06:32:17;;;;;;;53.35;30.95;;;;;;;-0.74;97.63;100357.03;1985664;29;44140;-63
2021/12/09 06:33:19;;;;;;;67.43;35.75;;;;;;;-0.69;98.23;100350.09;1985910;29;44717;-63
2021/12/09 06:34:21;;;;;;;61.58;35.72;;;;;;;-0.68;97.83;100354.47;1985546;29;45365;-63
2021/12/09 06:35:23;;;;;;;67.75;38.03;;;;;;;-0.66;98.11;100352.78;1985958;29;34835;-63
2021/12/09 06:36:25;;;;;;;73.10;40.03;;;;;;;-0.62;97.97;100357.19;1985818;29;43148;-63
2021/12/09 06:37:27;;;;;;;61.53;33.58;;;;;;;-0.65;98.76;100352.78;1985388;29;43237;-63
2021/12/09 06:38:29;;;;;;;69.55;36.40;;;;;;;-0.67;98.46;100354.50;1985157;29;46915;-63
2021/12/09 06:39:31;;;;;;;62.42;33.88;;;;;;;-0.67;97.91;100354.50;1986433;29;21045;-63
2021/12/09 06:40:33;;;;;;;70.93;37.97;;;;;;;-0.68;98.66;100357.09;1978103;29;30705;-63
2021/12/09 06:41:38;;;;;;;53.45;29.95;;;;;;;-0.74;97.52;100359.66;1978770;29;44480;-63
2021/12/09 06:42:42;;;;;;;59.97;33.35;;;;;;;-0.73;97.84;100353.56;1987243;29;44279;-63
2021/12/09 06:43:44;;;;;;;68.57;36.45;;;;;;;-0.78;97.76;100354.34;1977240;29;46724;-63
2021/12/09 06:44:48;;;;;;;69.05;34.65;;;;;;;-0.72;98.00;100358.81;1977707;29;42544;-63
2021/12/09 06:45:53;;;;;;;64.63;36.10;;;;;;;-0.77;97.51;100357.88;1976966;29;45634;-63
2021/12/09 06:46:56;;;;;;;56.15;28.67;;;;;;;-0.79;98.09;100363.13;1970417;29;37253;-63
2021/12/09 06:47:58;;;;;;;62.55;34.72;;;;;;;-0.75;98.34;100366.69;1977171;29;45278;-63
2021/12/09 06:48:59;;;;;;;67.00;36.47;;;;;;;-0.74;98.09;100368.41;1985225;29;32633;-63
2021/12/09 06:50:02;;;;;;;66.40;37.17;;;;;;;-0.67;98.10;100366.78;1986413;29;44805;-63
2021/12/09 06:51:06;;;;;;;71.75;36.72;;;;;;;-0.60;98.00;100366.00;1985918;29;45147;-63
2021/12/09 06:52:10;;;;;;;69.13;38.28;;;;;;;-0.55;98.62;100372.19;1979254;29;44560;-63
2021/12/09 06:53:14;;;;;;;75.47;40.85;;;;;;;-0.56;97.95;100372.16;1977819;29;45347;-63
2021/12/09 06:54:16;;;;;;;74.18;38.15;;;;;;;-0.56;98.38;100365.16;1985047;29;46784;-63
2021/12/09 06:55:20;;;;;;;70.95;38.17;;;;;;;-0.54;98.23;100371.31;1985613;29;44132;-63
2021/12/09 06:56:25;;;;;;;66.88;37.00;;;;;;;-0.54;98.23;100376.56;1976905;29;44453;-63
2021/12/09 06:57:27;;;;;;;71.88;38.35;;;;;;;-0.52;98.47;100374.88;1978390;29;36219;-63
2021/12/09 06:58:28;;;;;;;67.10;36.90;;;;;;;-0.52;98.21;100369.63;1985522;29;43908;-63
2021/12/09 06:59:30;;;;;;;66.68;38.90;;;;;;;-0.48;97.93;100375.78;1985397;29;43206;-63
2021/12/09 07:00:34;;;;;;;68.50;35.35;;;;;;;-0.50;97.86;100382.75;1985215;29;44861;-62
2021/12/09 07:01:38;;;;;;;65.72;38.10;;;;;;;-0.49;97.62;100380.16;1978012;29;26626;-62
2021/12/09 07:02:40;;;;;;;71.15;39.10;;;;;;;-0.47;97.91;100378.41;1979650;29;44725;-63
2021/12/09 07:03:42;;;;;;;70.63;37.50;;;;;;;-0.47;98.14;100381.03;1986941;29;44473;-63
2021/12/09 07:04:44;;;;;;;73.72;38.45;;;;;;;-0.44;97.85;100377.59;1986182;29;45434;-63
2021/12/09 07:05:46;;;;;;;77.10;40.60;;;;;;;-0.43;98.35;100388.13;1986996;29;38690;-62
2021/12/09 07:06:48;;;;;;;70.28;40.20;;;;;;;-0.45;98.06;100384.59;1986943;29;45336;-63
2021/12/09 07:07:51;;;;;;;66.95;35.88;;;;;;;-0.47;98.43;100383.66;1986858;29;44145;-63
2021/12/09 07:08:54;;;;;;;67.05;37.50;;;;;;;-0.46;98.07;100385.47;1987927;29;20143;-63
2021/12/09 07:09:56;;;;;;;66.30;36.78;;;;;;;-0.44;98.12;100385.47;1987203;29;37419;-63
2021/12/09 07:10:57;;;;;;;65.95;37.58;;;;;;;-0.46;97.74;100381.94;1987979;29;20847;-62
2021/12/09 07:11:59;;;;;;;66.90;38.38;;;;;;;-0.47;97.61;100391.56;1986569;29;44121;-63
2021/12/09 07:13:03;;;;;;;59.60;35.70;;;;;;;-0.48;98.10;100397.69;1987605;29;45137;-63
2021/12/09 07:14:04;;;;;;;64.18;36.35;;;;;;;-0.47;98.20;100383.66;1987199;29;34531;-63
2021/12/09 07:15:10;;;;;;;69.03;38.13;;;;;;;-0.49;97.84;100395.06;1986881;29;44075;-63
2021/12/09 07:16:12;;;;;;;66.70;37.22;;;;;;;-0.47;97.51;100396.81;1986831;29;44668;-63
2021/12/09 07:17:15;;;;;;;76.68;39.55;;;;;;;-0.50;97.88;100393.28;1987356;29;33679;-63
2021/12/09 07:18:20;;;;;;;62.90;36.58;;;;;;;-0.49;97.92;100393.28;1986910;29;46613;-62
2021/12/09 07:19:22;;;;;;;65.55;36.40;;;;;;;-0.46;98.24;100395.97;1986901;29;44586;-63
2021/12/09 07:20:29;;;;;;;63.28;37.60;;;;;;;-0.48;97.84;100389.81;1987919;29;44027;-63
2021/12/09 07:21:31;;;;;;;59.78;37.78;;;;;;;-0.50;98.48;100388.91;1986528;29;45273;-63
2021/12/09 07:22:33;;;;;;;66.32;36.60;;;;;;;-0.44;97.77;100388.09;1988262;29;43960;-63
2021/12/09 07:23:36;;;;;;;57.25;35.60;;;;;;;-0.48;97.34;100388.94;1986954;29;43095;-63
2021/12/09 07:24:38;;;;;;;60.20;34.35;;;;;;;-0.49;97.95;100390.66;1994162;29;45692;-63
2021/12/09 07:25:43;;;;;;;63.08;33.38;;;;;;;-0.51;97.84;100387.13;1994396;29;45625;-63
2021/12/09 07:26:45;;;;;;;61.67;37.53;;;;;;;-0.54;97.63;100394.09;1994216;29;46701;-63
2021/12/09 07:27:48;;;;;;;60.22;34.95;;;;;;;-0.56;97.31;100399.34;1994741;29;32497;-62
2021/12/09 07:28:50;;;;;;;57.58;36.42;;;;;;;-0.60;97.84;100400.16;1994280;29;43092;-63
2021/12/09 07:29:51;;;;;;;61.78;34.95;;;;;;;-0.53;97.64;100402.00;1994263;29;44813;-63
2021/12/09 07:30:53;;;;;;;56.13;34.20;;;;;;;-0.56;97.60;100403.72;1994382;29;45488;-62
2021/12/09 07:31:55;;;;;;;60.30;34.70;;;;;;;-0.54;97.67;100404.63;1994308;29;45101;-63
2021/12/09 07:32:57;;;;;;;59.97;35.17;;;;;;;-0.55;97.35;100401.13;1994206;29;44793;-63
2021/12/09 07:34:00;;;;;;;66.20;36.55;;;;;;;-0.54;97.93;100400.22;1994157;29;40341;-63
2021/12/09 07:35:05;;;;;;;61.60;36.28;;;;;;;-0.52;98.02;100400.25;1994276;29;44457;-63
2021/12/09 07:36:07;;;;;;;59.97;34.42;;;;;;;-0.52;98.19;100398.53;1994757;29;20058;-63
2021/12/09 07:37:08;;;;;;;65.43;38.05;;;;;;;-0.49;97.59;100401.19;1994159;29;46284;-63
2021/12/09 07:38:11;;;;;;;59.63;35.75;;;;;;;-0.47;97.90;100401.22;1995073;29;20958;-63
2021/12/09 07:39:14;;;;;;;61.50;33.97;;;;;;;-0.47;97.32;100402.09;1995334;29;20047;-63
2021/12/09 07:40:19;;;;;;;66.90;34.85;;;;;;;-0.48;97.83;100402.09;1994406;29;39068;-62
2021/12/09 07:41:22;;;;;;;52.75;32.42;;;;;;;-0.51;97.75;100404.66;1994735;29;31176;-62
2021/12/09 07:42:24;;;;;;;71.03;32.53;;;;;;;-0.55;97.47;100406.38;1993753;29;46547;-62
2021/12/09 07:43:26;;;;;;;82.50;35.53;;;;;;;-0.57;98.10;100405.47;1994709;29;43538;-62
2021/12/09 07:44:29;;;;;;;78.22;35.75;;;;;;;-0.58;97.72;100406.31;1994218;29;44735;-62
2021/12/09 07:45:32;;;;;;;61.15;33.03;;;;;;;-0.58;97.93;100412.44;1985657;29;46652;-62
2021/12/09 07:46:37;;;;;;;59.95;35.60;;;;;;;-0.56;97.83;100417.75;1986618;29;44924;-62
2021/12/09 07:47:39;;;;;;;52.97;33.05;;;;;;;-0.58;97.46;100407.19;1994116;29;45580;-64
2021/12/09 07:48:43;;;;;;;61.47;34.65;;;;;;;-0.53;97.76;100404.66;1994093;29;44419;-62
2021/12/09 07:49:45;;;;;;;58.15;32.58;;;;;;;-0.49;97.59;100405.56;1986508;29;33805;-62
2021/12/09 07:50:47;;;;;;;61.00;34.25;;;;;;;-0.48;97.82;100412.59;1978596;29;46249;-62
2021/12/09 07:51:53;;;;;;;54.08;33.72;;;;;;;-0.50;97.70;100407.31;1986285;29;43560;-62
2021/12/09 07:52:57;;;;;;;64.43;35.78;;;;;;;-0.48;97.65;100410.84;1994937;29;20108;-63
2021/12/09 07:54:01;;;;;;;54.70;33.55;;;;;;;-0.47;98.06;100417.00;1993955;29;44431;-62
2021/12/09 07:55:06;;;;;;;57.90;32.47;;;;;;;-0.47;97.62;100409.97;1994619;29;34359;-62
2021/12/09 07:56:08;;;;;;;55.65;34.42;;;;;;;-0.45;97.46;100420.50;1994085;29;46479;-62
2021/12/09 07:57:09;;;;;;;56.17;33.38;;;;;;;-0.45;97.90;100420.50;1994285;29;44788;-62
2021/12/09 07:58:11;;;;;;;46.65;30.13;;;;;;;-0.45;97.96;100416.16;1993605;29;33000;-62
2021/12/09 07:59:18;;;;;;;50.53;31.30;;;;;;;-0.45;97.44;100421.41;1993720;29;44954;-62
2021/12/09 08:00:28;;;;;;;51.75;31.80;;;;;;;-0.45;98.06;100426.69;1994146;29;45007;-62
2021/12/09 08:01:30;;;;;;;52.97;31.13;;;;;;;-0.45;97.37;100423.16;1994314;29;44505;-62
2021/12/09 08:02:32;;;;;;;53.95;32.72;;;;;;;-0.44;97.38;100425.81;1993952;29;45076;-62
2021/12/09 08:03:34;;;;;;;58.60;33.40;;;;;;;-0.43;97.62;100422.31;1993579;29;43328;-62
2021/12/09 23:19:46;;;;;;;45.55;26.05;;;;;;;2.92;90.35;100042.03;2451588;23;20093;31
2021/12/09 23:20:50;;;;;;;43.30;23.10;;;;;;;2.94;90.13;100042.00;1982461;29;44144;-63
2021/12/09 23:21:52;;;;;;;40.95;24.65;;;;;;;2.92;90.07;100038.50;1985586;29;46264;-62
2021/12/09 23:22:54;;;;;;;34.67;22.20;;;;;;;2.92;90.24;100039.38;1985633;29;42685;-63
2021/12/09 23:23:56;;;;;;;33.78;22.90;;;;;;;2.94;90.45;100045.53;1987187;29;44397;-62
2021/12/09 23:25:00;;;;;;;32.97;22.27;;;;;;;2.93;90.35;100033.22;1985475;29;44005;-62
2021/12/09 23:26:03;;;;;;;37.47;23.73;;;;;;;2.93;90.10;100025.28;1985053;29;44843;-62
2021/12/09 23:27:08;;;;;;;38.80;24.83;;;;;;;2.94;90.00;100029.66;1985031;29;45738;-62
2021/12/09 23:28:15;;;;;;;37.63;24.70;;;;;;;2.92;90.08;100028.81;1985449;29;43479;-62
2021/12/09 23:29:17;;;;;;;39.08;24.27;;;;;;;2.95;90.51;100025.28;1985684;29;43979;-63
2021/12/09 23:30:20;;;;;;;38.00;24.90;;;;;;;2.95;90.42;100017.34;1985505;29;46722;-62
2021/12/09 23:31:24;;;;;;;33.60;23.73;;;;;;;2.96;90.12;100021.72;1985570;29;43408;-62
2021/12/09 23:32:25;;;;;;;40.55;23.55;;;;;;;2.94;90.24;100013.81;1983194;29;30990;-62
2021/12/09 23:33:28;;;;;;;40.25;27.02;;;;;;;2.95;90.33;100020.00;1985025;29;44448;-62
2021/12/09 23:34:30;;;;;;;32.20;22.67;;;;;;;2.95;90.60;100017.34;1984620;29;42923;-62
2021/12/09 23:35:31;;;;;;;40.15;26.38;;;;;;;2.95;90.47;100018.22;1985184;29;46420;-63
2021/12/09 23:36:36;;;;;;;37.67;24.67;;;;;;;2.96;90.52;100000.56;1985458;29;43206;-62
2021/12/09 23:37:40;;;;;;;32.83;23.40;;;;;;;2.98;90.43;100004.09;1985909;29;35926;-62
2021/12/09 23:38:42;;;;;;;37.88;25.45;;;;;;;2.98;90.28;100004.09;1985234;29;45730;-62
2021/12/09 23:39:44;;;;;;;46.72;30.90;;;;;;;2.97;90.30;100003.22;1985653;29;42930;-63
2021/12/09 23:40:50;;;;;;;34.60;23.33;;;;;;;2.98;90.27;99999.69;1985501;29;46610;-63
2021/12/09 23:41:55;;;;;;;34.33;23.02;;;;;;;2.97;90.02;100002.34;1979774;29;44455;-63
2021/12/09 23:42:56;;;;;;;43.75;27.88;;;;;;;2.97;90.02;99997.94;1978432;29;36501;-63
2021/12/09 23:43:58;;;;;;;37.85;24.92;;;;;;;2.98;90.39;99993.50;1985830;29;44829;-63
2021/12/09 23:45:04;;;;;;;40.10;25.73;;;;;;;2.98;90.08;99994.41;1986814;29;45527;-62
2021/12/09 23:46:07;;;;;;;38.42;24.83;;;;;;;2.99;90.45;99992.63;1987186;29;32220;-62
2021/12/09 23:47:10;;;;;;;36.33;23.00;;;;;;;2.98;90.31;99991.75;1987243;29;43476;-63
2021/12/09 23:48:15;;;;;;;29.02;21.10;;;;;;;2.97;90.44;99991.78;1986692;29;45632;-63
2021/12/09 23:49:17;;;;;;;30.98;22.10;;;;;;;2.97;90.51;99982.06;1989407;29;32819;-62
2021/12/09 23:50:19;;;;;;;38.00;24.70;;;;;;;2.97;90.33;99992.63;1978568;29;42061;-63
2021/12/09 23:51:22;;;;;;;38.90;25.77;;;;;;;2.97;90.28;99978.56;1980410;29;43147;-62
2021/12/09 23:52:24;;;;;;;37.92;25.80;;;;;;;2.96;90.65;99976.78;1986940;29;37776;-62
2021/12/09 23:53:27;;;;;;;38.13;25.58;;;;;;;2.97;90.16;99968.84;1986557;29;43861;-62
2021/12/09 23:54:30;;;;;;;34.08;23.40;;;;;;;2.97;90.31;99966.19;1988473;29;44740;-63
2021/12/09 23:55:32;;;;;;;32.80;22.95;;;;;;;2.98;90.39;99969.72;1986898;29;42183;-62
2021/12/09 23:56:35;;;;;;;34.00;23.55;;;;;;;2.97;90.61;99976.78;1986761;29;45336;-62
2021/12/09 23:57:38;;;;;;;35.80;23.40;;;;;;;2.97;90.39;99971.47;1986808;29;46190;-62
2021/12/09 23:58:39;;;;;;;37.60;23.13;;;;;;;2.97;90.10;99967.97;1986793;29;44023;-62
2021/12/09 23:59:41;;;;;;;54.05;34.33;;;;;;;2.96;90.11;99968.84;1986691;29;45159;-62
